createdAt,value
2023-12-04T00:01:18.601Z,-13.18
2023-12-04T00:03:45.903Z,-12.95
2023-12-04T00:06:13.437Z,-13.05
2023-12-04T00:08:40.604Z,-12.60
2023-12-04T00:11:08.070Z,-12.18
2023-12-04T00:13:35.852Z,-12.38
2023-12-04T00:16:02.990Z,-12.73
2023-12-04T00:18:30.182Z,-12.15
2023-12-04T00:20:57.657Z,-13.18
2023-12-04T00:23:24.506Z,-13.07
2023-12-04T00:25:51.210Z,-13.28
2023-12-04T00:28:18.007Z,-13.21
2023-12-04T00:30:45.966Z,-12.68
2023-12-04T00:33:12.824Z,-12.52
2023-12-04T00:35:39.599Z,-12.38
2023-12-04T00:38:06.370Z,-12.49
2023-12-04T00:40:34.450Z,-13.02
2023-12-04T00:43:01.297Z,-13.14
2023-12-04T00:45:28.181Z,-12.73
2023-12-04T00:47:55.048Z,-12.07
2023-12-04T00:50:21.996Z,-12.32
2023-12-04T00:52:49.112Z,-12.24
2023-12-04T00:55:15.896Z,-12.25
2023-12-04T00:57:42.712Z,-12.53
2023-12-04T01:00:10.170Z,-13.60
2023-12-04T01:02:36.921Z,-13.14
2023-12-04T01:05:03.921Z,-13.69
2023-12-04T01:07:30.739Z,-12.41
2023-12-04T01:09:57.532Z,-13.11
2023-12-04T01:12:24.396Z,-13.29
2023-12-04T01:14:51.226Z,-12.42
2023-12-04T01:17:18.020Z,-12.97
2023-12-04T01:19:44.780Z,-12.99
2023-12-04T01:22:11.549Z,-12.03
2023-12-04T01:24:38.400Z,-11.81
2023-12-04T01:27:05.483Z,-13.11
2023-12-04T01:29:33.189Z,-13.64
2023-12-04T01:31:59.965Z,-12.84
2023-12-04T01:34:26.918Z,-13.75
2023-12-04T01:36:53.841Z,-14.10
2023-12-04T01:39:20.684Z,-12.61
2023-12-04T01:41:47.461Z,-12.81
2023-12-04T01:44:14.283Z,-13.35
2023-12-04T01:46:41.617Z,-14.22
2023-12-04T01:49:09.040Z,-14.04
2023-12-04T01:51:36.700Z,-13.80
2023-12-04T01:54:05.684Z,-14.42
2023-12-04T01:56:33.706Z,-13.95
2023-12-04T01:59:01.134Z,-14.16
2023-12-04T02:01:28.579Z,-15.07
2023-12-04T02:03:57.338Z,-14.21
2023-12-04T02:06:24.225Z,-14.56
2023-12-04T02:08:50.960Z,-14.13
2023-12-04T02:11:17.844Z,-13.08
2023-12-04T02:13:44.789Z,-13.38
2023-12-04T02:16:15.985Z,-13.84
2023-12-04T02:18:44.455Z,-13.47
2023-12-04T02:21:11.317Z,-13.91
2023-12-04T02:23:38.124Z,-13.59
2023-12-04T02:26:11.873Z,-13.90
2023-12-04T02:28:39.566Z,-13.59
2023-12-04T02:31:08.216Z,-13.78
2023-12-04T02:33:37.023Z,-13.94
2023-12-04T02:36:06.551Z,-14.63
2023-12-04T02:38:33.779Z,-13.39
2023-12-04T02:41:00.783Z,-14.31
2023-12-04T02:43:27.563Z,-13.94
2023-12-04T02:45:54.478Z,-14.86
2023-12-04T02:48:21.477Z,-13.56
2023-12-04T02:50:48.272Z,-14.84
2023-12-04T02:53:15.064Z,-15.05
2023-12-04T02:55:41.846Z,-14.98
2023-12-04T02:58:08.624Z,-13.87
2023-12-04T03:00:35.520Z,-14.03
2023-12-04T03:03:02.355Z,-13.81
2023-12-04T03:05:29.122Z,-14.10
2023-12-04T03:07:55.877Z,-13.93
2023-12-04T03:10:22.687Z,-13.82
2023-12-04T03:12:49.506Z,-13.30
2023-12-04T03:15:16.471Z,-13.59
2023-12-04T03:17:43.268Z,-14.92
2023-12-04T03:20:10.752Z,-14.44
2023-12-04T03:22:38.294Z,-14.06
2023-12-04T03:25:05.709Z,-13.78
2023-12-04T03:27:32.517Z,-13.63
2023-12-04T03:29:59.352Z,-13.91
2023-12-04T03:32:26.174Z,-13.49
2023-12-04T03:34:52.961Z,-14.01
2023-12-04T03:37:19.710Z,-14.31
2023-12-04T03:39:46.544Z,-14.34
2023-12-04T03:42:13.416Z,-14.03
2023-12-04T03:44:40.180Z,-13.14
2023-12-04T03:47:06.979Z,-13.31
2023-12-04T03:49:33.806Z,-14.14
2023-12-04T03:52:00.727Z,-13.52
2023-12-04T03:54:27.483Z,-13.31
2023-12-04T03:56:54.551Z,-12.88
2023-12-04T03:59:21.490Z,-12.99
2023-12-04T04:01:48.277Z,-14.22
2023-12-04T04:04:15.178Z,-14.08
2023-12-04T04:06:42.019Z,-14.68
2023-12-04T04:09:08.892Z,-14.32
2023-12-04T04:11:36.627Z,-14.43
2023-12-04T04:14:03.348Z,-13.83
2023-12-04T04:16:30.106Z,-14.58
2023-12-04T04:18:57.322Z,-14.27
2023-12-04T04:21:24.164Z,-14.40
2023-12-04T04:23:50.966Z,-13.47
2023-12-04T04:26:17.666Z,-14.43
2023-12-04T04:28:44.498Z,-14.31
2023-12-04T04:31:11.355Z,-13.98
2023-12-04T04:33:38.279Z,-13.08
2023-12-04T04:36:05.733Z,-13.70
2023-12-04T04:38:32.459Z,-14.42
2023-12-04T04:40:59.260Z,-14.15
2023-12-04T04:43:26.098Z,-14.71
2023-12-04T04:45:52.910Z,-14.18
2023-12-04T04:48:21.070Z,-14.47
2023-12-04T04:50:47.821Z,-13.79
2023-12-04T04:53:14.634Z,-13.86
2023-12-04T04:55:47.700Z,-12.99
2023-12-04T04:58:17.300Z,-13.24
2023-12-04T05:00:45.143Z,-13.92
2023-12-04T05:03:11.915Z,-14.76
2023-12-04T05:05:38.692Z,-14.42
2023-12-04T05:08:05.774Z,-14.20
2023-12-04T05:10:32.694Z,-14.57
2023-12-04T05:12:59.951Z,-14.38
2023-12-04T05:15:26.765Z,-14.05
2023-12-04T05:17:54.843Z,-13.61
2023-12-04T05:20:21.647Z,-15.00
2023-12-04T05:22:50.057Z,-14.57
2023-12-04T05:25:16.906Z,-14.48
2023-12-04T05:27:43.730Z,-14.30
2023-12-04T05:30:10.853Z,-12.70
2023-12-04T05:32:37.650Z,-12.90
2023-12-04T05:35:04.762Z,-13.63
2023-12-04T05:37:31.512Z,-13.44
2023-12-04T05:39:58.295Z,-12.62
2023-12-04T05:42:25.028Z,-14.20
2023-12-04T05:44:56.459Z,-13.86
2023-12-04T05:47:23.432Z,-13.77
2023-12-04T05:49:50.232Z,-13.99
2023-12-04T05:52:17.190Z,-13.44
2023-12-04T05:54:44.181Z,-13.42
2023-12-04T05:57:10.910Z,-12.75
2023-12-04T05:59:37.748Z,-13.68
2023-12-04T06:02:04.721Z,-13.17
2023-12-04T06:04:31.549Z,-13.69
2023-12-04T06:06:58.364Z,-12.85
2023-12-04T06:09:25.168Z,-13.03
2023-12-04T06:11:51.972Z,-13.98
2023-12-04T06:14:18.940Z,-14.07
2023-12-04T06:16:46.051Z,-13.24
2023-12-04T06:19:13.532Z,-13.94
2023-12-04T06:21:41.190Z,-13.73
2023-12-04T06:24:09.869Z,-13.00
2023-12-04T06:26:42.315Z,-13.35
2023-12-04T06:29:09.366Z,-13.84
2023-12-04T06:31:36.762Z,-14.21
2023-12-04T06:34:03.858Z,-14.56
2023-12-04T06:36:36.483Z,-13.23
2023-12-04T06:39:05.598Z,-12.67
2023-12-04T06:41:32.633Z,-12.14
2023-12-04T06:43:59.759Z,-13.48
2023-12-04T06:46:30.183Z,-12.96
2023-12-04T06:49:00.801Z,-13.93
2023-12-04T06:51:28.085Z,-14.06
2023-12-04T06:53:54.843Z,-13.80
2023-12-04T06:56:21.596Z,-12.50
2023-12-04T06:58:48.505Z,-12.88
2023-12-04T07:01:15.358Z,-12.37
2023-12-04T07:03:42.274Z,-11.66
2023-12-04T07:06:09.410Z,-11.69
2023-12-04T07:08:36.171Z,-12.79
2023-12-04T07:11:03.100Z,-12.69
2023-12-04T07:13:29.807Z,-11.80
2023-12-04T07:15:56.596Z,-12.36
2023-12-04T07:18:23.432Z,-12.67
2023-12-04T07:20:50.431Z,-12.15
2023-12-04T07:23:17.227Z,-11.80
2023-12-04T07:25:43.982Z,-12.08
2023-12-04T07:28:10.854Z,-12.74
2023-12-04T07:30:37.706Z,-13.28
2023-12-04T07:33:05.883Z,-11.97
2023-12-04T07:35:35.050Z,-12.05
2023-12-04T07:38:01.815Z,-11.79
2023-12-04T07:40:28.581Z,-12.50
2023-12-04T07:42:55.386Z,-12.07
2023-12-04T07:45:22.614Z,-11.47
2023-12-04T07:47:49.565Z,-12.10
2023-12-04T07:50:16.359Z,-11.95
2023-12-04T07:52:43.132Z,-11.96
2023-12-04T07:55:10.003Z,-11.74
2023-12-04T07:57:36.878Z,-12.09
2023-12-04T08:00:04.202Z,-11.69
2023-12-04T08:02:32.056Z,-11.20
2023-12-04T08:05:00.124Z,-10.32
2023-12-04T08:07:26.988Z,-10.57
2023-12-04T08:09:55.183Z,-11.12
2023-12-04T08:12:22.060Z,-10.68
2023-12-04T08:14:48.968Z,-10.20
2023-12-04T08:17:15.810Z,-10.67
2023-12-04T08:19:43.162Z,-9.75
2023-12-04T08:22:10.194Z,-10.15
2023-12-04T08:24:37.137Z,-10.04
2023-12-04T08:27:04.126Z,-10.78
2023-12-04T08:29:30.924Z,-9.66
2023-12-04T08:31:57.801Z,-10.29
2023-12-04T08:34:24.630Z,-10.33
2023-12-04T08:36:51.513Z,-10.71
2023-12-04T08:39:18.278Z,-9.14
2023-12-04T08:41:55.081Z,-9.44
2023-12-04T08:44:28.427Z,-9.79
2023-12-04T08:46:58.968Z,-9.37
2023-12-04T08:49:33.162Z,-9.21
2023-12-04T08:52:06.977Z,-8.51
2023-12-04T08:54:34.438Z,-8.81
2023-12-04T08:57:02.480Z,-7.79
2023-12-04T08:59:30.145Z,-8.06
2023-12-04T09:01:57.093Z,-8.96
2023-12-04T09:04:24.171Z,-8.29
2023-12-04T09:09:20.876Z,-7.81
2023-12-04T09:11:48.812Z,-7.59
2023-12-04T09:14:15.890Z,-6.76
2023-12-04T09:16:43.289Z,-6.77
2023-12-04T09:19:10.285Z,-8.25
2023-12-04T09:21:37.176Z,-8.22
2023-12-04T09:24:04.300Z,-8.51
2023-12-04T09:26:31.140Z,-8.45
2023-12-04T09:28:58.876Z,-8.46
2023-12-04T09:31:25.747Z,-8.91
2023-12-04T09:33:53.297Z,-7.96
2023-12-04T09:36:20.250Z,-6.59
2023-12-04T09:38:47.987Z,-5.90
2023-12-04T09:41:17.033Z,-6.23
2023-12-04T09:43:46.118Z,-5.99
2023-12-04T09:46:13.540Z,-6.02
2023-12-04T09:48:44.423Z,-6.51
2023-12-04T09:51:12.306Z,-6.82
2023-12-04T09:53:40.853Z,-6.45
2023-12-04T09:56:10.367Z,-5.91
2023-12-04T09:58:41.367Z,-5.72
2023-12-04T10:01:08.693Z,-6.07
2023-12-04T10:03:36.894Z,-6.10
2023-12-04T10:06:05.511Z,-6.12
2023-12-04T10:08:32.420Z,-5.33
2023-12-04T10:11:00.128Z,-4.89
2023-12-04T10:13:56.135Z,-5.17
2023-12-04T10:16:15.327Z,-5.59
2023-12-04T10:18:42.475Z,-4.44
2023-12-04T10:21:13.719Z,-5.36
2023-12-04T10:23:45.867Z,-5.38
2023-12-04T10:26:17.119Z,-5.04
2023-12-04T10:29:01.338Z,-4.45
2023-12-04T10:31:32.682Z,-4.47
2023-12-04T10:33:59.514Z,-5.25
2023-12-04T10:36:26.532Z,-5.27
2023-12-04T10:39:01.252Z,-5.59
2023-12-04T10:41:28.719Z,-5.37
2023-12-04T10:44:01.426Z,-4.91
2023-12-04T10:46:37.320Z,-5.60
2023-12-04T10:49:06.798Z,-6.13
2023-12-04T10:51:35.545Z,-6.48
2023-12-04T10:54:02.964Z,-4.29
2023-12-04T10:56:40.807Z,-3.85
2023-12-04T10:59:13.492Z,-5.05
2023-12-04T11:01:43.895Z,-5.17
2023-12-04T11:04:18.555Z,-5.56
2023-12-04T11:06:49.884Z,-6.43
2023-12-04T11:09:19.912Z,-5.22
2023-12-04T11:11:52.361Z,-5.03
2023-12-04T11:14:23.826Z,-4.20
2023-12-04T11:16:55.646Z,-3.19
2023-12-04T11:19:50.819Z,-4.46
2023-12-04T11:22:21.302Z,-3.51
2023-12-04T11:24:49.893Z,-3.48
2023-12-04T11:27:19.264Z,-3.35
2023-12-04T11:29:49.901Z,-3.38
2023-12-04T11:32:20.704Z,-3.72
2023-12-04T11:35:00.507Z,-3.85
2023-12-04T11:37:27.734Z,-3.25
2023-12-04T11:39:55.412Z,-3.58
2023-12-04T11:42:25.137Z,-3.36
2023-12-04T11:44:59.966Z,-3.27
2023-12-04T11:47:29.469Z,-3.09
2023-12-04T11:49:56.400Z,-3.46
2023-12-04T11:52:34.691Z,-4.91
2023-12-04T11:55:07.117Z,-2.60
2023-12-04T11:57:42.027Z,-2.38
2023-12-04T12:00:24.169Z,-2.63
2023-12-04T12:03:15.650Z,-2.97
2023-12-04T12:05:42.263Z,-2.72
2023-12-04T12:08:10.105Z,-2.17
2023-12-04T12:10:38.777Z,-2.28
2023-12-04T12:13:05.912Z,-3.05
2023-12-04T12:15:34.674Z,-2.59
2023-12-04T12:18:01.669Z,-2.24
2023-12-04T12:20:28.665Z,-2.39
2023-12-04T12:22:55.749Z,-2.81
2023-12-04T12:25:24.000Z,-2.59
2023-12-04T12:27:52.084Z,-4.46
2023-12-04T12:30:18.913Z,-2.72
2023-12-04T12:32:45.775Z,-2.62
2023-12-04T12:35:12.884Z,-3.19
2023-12-04T12:37:40.563Z,-4.07
2023-12-04T12:40:11.147Z,-3.19
2023-12-04T12:42:45.293Z,-2.53
2023-12-04T12:45:13.552Z,-4.58
2023-12-04T12:47:44.853Z,-2.67
2023-12-04T12:50:15.061Z,-2.61
2023-12-04T12:52:44.581Z,-3.41
2023-12-04T12:55:11.756Z,-2.36
2023-12-04T12:57:39.014Z,-2.50
2023-12-04T13:00:08.177Z,-2.36
2023-12-04T13:02:37.750Z,-2.72
2023-12-04T13:05:06.025Z,-2.35
2023-12-04T13:07:33.343Z,-1.60
2023-12-04T13:10:00.243Z,-2.02
2023-12-04T13:12:27.110Z,-2.70
2023-12-04T13:14:54.251Z,-2.90
2023-12-04T13:17:21.442Z,-2.29
2023-12-04T13:19:48.682Z,-2.64
2023-12-04T13:22:16.055Z,-3.35
2023-12-04T13:24:42.928Z,-3.01
2023-12-04T13:27:10.426Z,-3.32
2023-12-04T13:29:37.218Z,-3.35
2023-12-04T13:32:05.496Z,-2.81
2023-12-04T13:34:34.731Z,-3.26
2023-12-04T13:37:01.584Z,-3.01
2023-12-04T13:39:37.655Z,-2.89
2023-12-04T13:42:23.675Z,-3.18
2023-12-04T13:44:52.753Z,-2.21
2023-12-04T13:47:19.538Z,-2.56
2023-12-04T13:49:48.000Z,-2.47
2023-12-04T13:52:14.955Z,-2.86
2023-12-04T13:54:48.457Z,-2.90
2023-12-04T13:57:22.341Z,-3.46
2023-12-04T13:59:49.406Z,-2.90
2023-12-04T14:02:16.958Z,-2.19
2023-12-04T14:04:44.608Z,-2.11
2023-12-04T14:07:13.799Z,-2.87
2023-12-04T14:09:41.610Z,-3.44
2023-12-04T14:12:09.573Z,-2.50
2023-12-04T14:14:36.923Z,-1.87
2023-12-04T14:17:05.697Z,-2.22
2023-12-04T14:19:33.356Z,-1.90
2023-12-04T14:22:00.744Z,-3.46
2023-12-04T14:24:27.603Z,-2.36
2023-12-04T14:26:57.381Z,-4.28
2023-12-04T14:29:24.571Z,-3.74
2023-12-04T14:31:51.535Z,-3.19
2023-12-04T14:34:18.499Z,-2.43
2023-12-04T14:36:45.309Z,-2.57
2023-12-04T14:39:13.579Z,-2.75
2023-12-04T14:41:40.538Z,-3.36
2023-12-04T14:44:07.344Z,-3.51
2023-12-04T14:46:34.258Z,-2.71
2023-12-04T14:49:01.048Z,-3.15
2023-12-04T14:51:28.613Z,-2.52
2023-12-04T14:54:14.247Z,-2.70
2023-12-04T14:56:44.686Z,-3.09
2023-12-04T14:59:30.134Z,-2.73
2023-12-04T15:02:15.678Z,-2.49
2023-12-04T15:05:01.586Z,-2.99
2023-12-04T15:07:47.197Z,-3.38
2023-12-04T15:10:49.194Z,-3.89
2023-12-04T15:13:34.789Z,-4.44
2023-12-04T15:16:01.562Z,-4.98
2023-12-04T15:18:39.438Z,-4.45
2023-12-04T15:21:07.909Z,-3.53
2023-12-04T15:23:34.708Z,-3.97
2023-12-04T15:26:02.764Z,-3.63
2023-12-04T15:28:29.747Z,-3.50
2023-12-04T15:30:57.270Z,-4.48
2023-12-04T15:33:27.338Z,-3.50
2023-12-04T15:35:54.221Z,-3.75
2023-12-04T15:38:21.760Z,-4.72
2023-12-04T15:40:48.970Z,-4.24
2023-12-04T15:43:16.305Z,-2.92
2023-12-04T15:45:44.090Z,-3.55
2023-12-04T15:48:12.505Z,-2.68
2023-12-04T15:50:39.540Z,-3.38
2023-12-04T15:53:06.401Z,-3.96
2023-12-04T15:55:33.320Z,-3.24
2023-12-04T15:58:00.227Z,-3.11
2023-12-04T16:00:28.404Z,-3.54
2023-12-04T16:02:55.805Z,-3.54
2023-12-04T16:05:25.253Z,-4.28
2023-12-04T16:07:52.425Z,-4.60
2023-12-04T16:10:19.343Z,-3.75
2023-12-04T16:12:46.496Z,-4.02
2023-12-04T16:15:14.113Z,-3.77
2023-12-04T16:17:41.151Z,-2.97
2023-12-04T16:20:12.536Z,-2.99
2023-12-04T16:22:44.471Z,-3.94
2023-12-04T16:25:19.539Z,-5.70
2023-12-04T16:27:46.970Z,-4.09
2023-12-04T16:30:14.651Z,-4.19
2023-12-04T16:32:41.758Z,-4.05
2023-12-04T16:35:10.208Z,-5.28
2023-12-04T16:37:38.166Z,-5.17
2023-12-04T16:40:05.818Z,-4.52
2023-12-04T16:42:33.481Z,-3.23
2023-12-04T16:45:00.467Z,-3.33
2023-12-04T16:47:27.419Z,-3.05
2023-12-04T16:49:54.650Z,-3.13
2023-12-04T16:52:21.685Z,-3.27
2023-12-04T16:54:52.364Z,-3.16
2023-12-04T16:57:19.458Z,-3.63
2023-12-04T16:59:46.713Z,-4.05
2023-12-04T17:02:13.664Z,-3.43
2023-12-04T17:04:40.807Z,-2.95
2023-12-04T17:07:07.730Z,-2.68
2023-12-04T17:09:35.279Z,-2.73
2023-12-04T17:12:02.387Z,-3.78
2023-12-04T17:14:29.340Z,-3.42
2023-12-04T17:16:56.259Z,-2.83
2023-12-04T17:19:23.150Z,-2.97
2023-12-04T17:21:49.958Z,-2.51
2023-12-04T17:24:16.841Z,-2.23
2023-12-04T17:26:43.597Z,-2.69
2023-12-04T17:29:10.454Z,-3.26
2023-12-04T17:31:40.023Z,-3.76
2023-12-04T17:34:06.944Z,-3.18
2023-12-04T17:36:33.964Z,-3.16
2023-12-04T17:39:00.855Z,-3.73
2023-12-04T17:41:27.671Z,-3.03
2023-12-04T17:43:54.512Z,-2.51
2023-12-04T17:46:21.400Z,-2.96
2023-12-04T17:48:48.973Z,-3.39
2023-12-04T17:51:19.097Z,-4.16
2023-12-04T17:53:45.933Z,-4.01
2023-12-04T17:56:12.679Z,-3.69
2023-12-04T17:58:39.502Z,-4.11
2023-12-04T18:01:07.090Z,-3.34
2023-12-04T18:03:36.646Z,-3.94
2023-12-04T18:06:05.434Z,-3.70
2023-12-04T18:08:34.848Z,-3.36
2023-12-04T18:11:01.875Z,-3.27
2023-12-04T18:13:28.864Z,-3.23
2023-12-04T18:15:56.110Z,-3.39
2023-12-04T18:18:24.568Z,-2.95
2023-12-04T18:20:52.776Z,-3.01
2023-12-04T18:23:19.808Z,-3.52
2023-12-04T18:25:48.427Z,-3.34
2023-12-04T18:28:15.583Z,-3.21
2023-12-04T18:30:43.455Z,-3.21
2023-12-04T18:33:10.850Z,-3.12
2023-12-04T18:35:37.895Z,-4.21
2023-12-04T18:38:18.702Z,-3.70
2023-12-04T18:40:45.894Z,-3.07
2023-12-04T18:43:13.462Z,-3.97
2023-12-04T18:45:40.564Z,-4.58
2023-12-04T18:48:09.721Z,-3.63
2023-12-04T18:50:40.676Z,-3.23
2023-12-04T18:53:10.306Z,-3.14
2023-12-04T18:55:40.526Z,-3.18
2023-12-04T18:58:10.709Z,-4.01
2023-12-04T19:00:40.253Z,-3.09
2023-12-04T19:03:07.221Z,-3.02
2023-12-04T19:05:34.472Z,-3.16
2023-12-04T19:08:03.002Z,-3.94
2023-12-04T19:10:29.852Z,-2.90
2023-12-04T19:12:57.169Z,-3.17
2023-12-04T19:15:25.636Z,-4.15
2023-12-04T19:17:53.571Z,-3.60
2023-12-04T19:20:20.452Z,-3.53
2023-12-04T19:22:47.195Z,-3.05
2023-12-04T19:25:14.878Z,-3.46
2023-12-04T19:27:41.826Z,-4.90
2023-12-04T19:30:09.163Z,-4.93
2023-12-04T19:32:36.312Z,-3.73
2023-12-04T19:35:03.599Z,-3.25
2023-12-04T19:37:30.471Z,-2.74
2023-12-04T19:39:57.226Z,-3.18
2023-12-04T19:42:27.223Z,-2.62
2023-12-04T19:44:57.092Z,-2.54
2023-12-04T19:47:24.199Z,-2.63
2023-12-04T19:49:51.070Z,-2.61
2023-12-04T19:52:17.956Z,-4.02
2023-12-04T19:54:45.162Z,-3.38
2023-12-04T19:57:12.184Z,-2.47
2023-12-04T19:59:38.975Z,-2.67
2023-12-04T20:02:06.404Z,-2.51
2023-12-04T20:04:34.781Z,-3.27
2023-12-04T20:07:01.856Z,-3.43
2023-12-04T20:09:29.231Z,-3.56
2023-12-04T20:11:56.116Z,-2.59
2023-12-04T20:14:23.988Z,-4.72
2023-12-04T20:16:52.343Z,-3.83
2023-12-04T20:19:20.612Z,-4.82
2023-12-04T20:21:47.753Z,-3.49
2023-12-04T20:24:16.053Z,-2.94
2023-12-04T20:26:43.581Z,-3.22
2023-12-04T20:29:10.726Z,-2.52
2023-12-04T20:31:37.654Z,-2.44
2023-12-04T20:34:05.079Z,-2.91
2023-12-04T20:36:31.994Z,-3.25
2023-12-04T20:38:59.094Z,-3.10
2023-12-04T20:41:26.041Z,-3.13
2023-12-04T20:43:52.913Z,-2.98
2023-12-04T20:46:19.876Z,-3.60
2023-12-04T20:48:47.024Z,-3.09
2023-12-04T20:51:14.649Z,-3.11
2023-12-04T20:53:41.636Z,-2.58
2023-12-04T20:56:09.134Z,-2.69
2023-12-04T20:58:36.114Z,-2.55
2023-12-04T21:01:04.194Z,-2.50
2023-12-04T21:03:31.312Z,-3.27
2023-12-04T21:05:58.260Z,-3.33
2023-12-04T21:08:25.256Z,-2.42
2023-12-04T21:10:52.192Z,-2.02
2023-12-04T21:13:19.005Z,-2.38
2023-12-04T21:15:48.050Z,-1.93
2023-12-04T21:18:16.120Z,-2.07
2023-12-04T21:20:44.705Z,-2.52
2023-12-04T21:23:11.726Z,-2.42
2023-12-04T21:25:38.896Z,-3.47
2023-12-04T21:28:07.341Z,-4.99
2023-12-04T21:30:34.689Z,-2.51
2023-12-04T21:33:01.807Z,-2.22
2023-12-04T21:35:28.650Z,-1.87
2023-12-04T21:37:56.662Z,-2.30
2023-12-04T21:40:24.476Z,-2.86
2023-12-04T21:42:51.488Z,-4.00
2023-12-04T21:45:21.231Z,-3.42
2023-12-04T21:47:49.679Z,-4.09
2023-12-04T21:50:16.791Z,-3.70
2023-12-04T21:52:43.702Z,-3.25
2023-12-04T21:55:13.139Z,-3.92
2023-12-04T21:57:40.651Z,-4.29
2023-12-04T22:00:11.867Z,-4.04
2023-12-04T22:02:39.115Z,-3.63
2023-12-04T22:05:06.577Z,-3.71
2023-12-04T22:07:34.172Z,-2.73
2023-12-04T22:10:01.074Z,-2.30
2023-12-04T22:12:28.075Z,-2.50
2023-12-04T22:14:55.101Z,-2.18
2023-12-04T22:17:22.063Z,-3.60
2023-12-04T22:19:49.023Z,-3.25
2023-12-04T22:22:16.883Z,-3.50
2023-12-04T22:24:43.825Z,-3.35
2023-12-04T22:27:10.779Z,-4.45
2023-12-04T22:29:37.853Z,-3.25
2023-12-04T22:32:04.845Z,-4.02
2023-12-04T22:34:32.482Z,-2.79
2023-12-04T22:36:59.339Z,-4.24
2023-12-04T22:39:26.205Z,-3.17
2023-12-04T22:41:53.099Z,-2.94
2023-12-04T22:44:19.898Z,-1.98
2023-12-04T22:46:47.182Z,-2.05
2023-12-04T22:49:14.137Z,-1.79
2023-12-04T22:51:41.153Z,-3.17
2023-12-04T22:54:07.995Z,-3.39
2023-12-04T22:56:34.783Z,-2.76
2023-12-04T22:59:01.711Z,-2.12
2023-12-04T23:01:28.533Z,-2.70
2023-12-04T23:03:56.249Z,-3.32
2023-12-04T23:06:23.905Z,-1.83
2023-12-04T23:08:50.782Z,-1.97
2023-12-04T23:11:18.047Z,-1.18
2023-12-04T23:13:45.077Z,-1.20
2023-12-04T23:16:12.021Z,-1.99
2023-12-04T23:18:39.027Z,-2.64
2023-12-04T23:21:08.436Z,-2.81
2023-12-04T23:23:36.950Z,-2.18
2023-12-04T23:26:04.223Z,-2.06
2023-12-04T23:28:31.136Z,-1.92
2023-12-04T23:30:57.995Z,-2.01
2023-12-04T23:33:25.700Z,-2.50
2023-12-04T23:35:53.298Z,-1.94
2023-12-04T23:38:20.424Z,-1.71
2023-12-04T23:40:47.188Z,-1.62
2023-12-04T23:43:14.042Z,-1.98
2023-12-04T23:45:45.712Z,-2.48
2023-12-04T23:48:20.385Z,-1.80
2023-12-04T23:50:47.579Z,-2.65
2023-12-04T23:53:14.386Z,-2.25
2023-12-04T23:55:41.310Z,-3.27
2023-12-04T23:58:08.269Z,-2.51
